Time;durP1;ratioP1;P1;durP2;ratioP2;P2;SDS_P1;SDS_P2;PMS_P1;PMS_P2;Temp;Humidity;BMP_temperature;BMP_pressure;BME280_temperature;BME280_humidity;BME280_pressure;Samples;Min_cycle;Max_cycle;Signal;HPM_P1;HPM_P2
2021/06/08 00:00:29;;;;;;;1.00;0.90;;;23.80;44.00;;;;;;6387284;27;20077;-69
2021/06/08 00:03:30;;;;;;;1.23;0.93;;;23.70;44.10;;;;;;6374889;27;20050;-67
2021/06/08 00:06:30;;;;;;;1.15;1.05;;;23.60;44.70;;;;;;6393670;27;20027;-69
2021/06/08 00:09:31;;;;;;;1.02;0.93;;;23.50;45.10;;;;;;6375793;27;20435;-68
2021/06/08 00:12:32;;;;;;;1.02;0.90;;;23.50;45.50;;;;;;6387863;27;20031;-67
2021/06/08 00:15:33;;;;;;;1.48;1.10;;;23.50;45.80;;;;;;6390599;27;20293;-67
2021/06/08 00:18:34;;;;;;;1.30;1.00;;;23.50;45.90;;;;;;6385184;27;20102;-67
2021/06/08 00:21:34;;;;;;;0.90;0.80;;;23.50;46.10;;;;;;6371197;27;20080;-66
2021/06/08 00:24:35;;;;;;;1.55;1.00;;;23.40;46.20;;;;;;6380394;27;20027;-67
2021/06/08 00:27:35;;;;;;;1.10;0.95;;;23.40;46.40;;;;;;6393058;27;20030;-67
2021/06/08 00:30:37;;;;;;;1.00;0.90;;;23.40;46.50;;;;;;6392916;27;20019;-67
2021/06/08 00:33:37;;;;;;;1.00;0.90;;;23.40;46.70;;;;;;6393386;27;20491;-67
2021/06/08 00:36:38;;;;;;;0.77;0.70;;;23.40;46.80;;;;;;6392994;27;20038;-67
2021/06/08 00:39:39;;;;;;;1.15;0.85;;;23.40;46.90;;;;;;6388448;27;20091;-66
2021/06/08 00:42:39;;;;;;;1.00;0.90;;;23.40;47.00;;;;;;6393379;27;20031;-67
2021/06/08 00:45:40;;;;;;;1.25;0.93;;;23.30;47.00;;;;;;6393473;27;20587;-67
2021/06/08 00:48:41;;;;;;;1.00;0.80;;;23.30;47.10;;;;;;6392689;27;20022;-67
2021/06/08 00:51:42;;;;;;;1.20;1.00;;;23.30;47.30;;;;;;6392794;27;20563;-68
2021/06/08 00:54:42;;;;;;;1.20;1.00;;;23.30;48.00;;;;;;6393043;27;20030;-67
2021/06/08 00:57:43;;;;;;;1.10;0.95;;;23.30;47.40;;;;;;6392802;27;20051;-68
2021/06/08 01:00:44;;;;;;;1.15;0.93;;;23.30;47.50;;;;;;6392710;27;20030;-67
2021/06/08 01:03:44;;;;;;;0.80;0.80;;;23.30;47.50;;;;;;6392776;27;20087;-67
2021/06/08 01:06:48;;;;;;;0.80;0.80;;;23.30;47.60;;;;;;6382344;27;20022;-67
2021/06/08 01:09:48;;;;;;;0.80;0.80;;;23.30;47.60;;;;;;6384271;27;20011;-67
2021/06/08 01:12:50;;;;;;;0.93;0.80;;;23.30;47.70;;;;;;6378215;27;20030;-67
2021/06/08 01:15:51;;;;;;;1.10;0.90;;;23.30;47.80;;;;;;6381794;27;20019;-68
2021/06/08 01:18:51;;;;;;;1.08;0.98;;;23.30;47.80;;;;;;6392719;27;20037;-66
2021/06/08 01:21:52;;;;;;;0.93;0.82;;;23.30;47.80;;;;;;6369319;27;20023;-66
2021/06/08 01:24:53;;;;;;;0.88;0.80;;;23.30;47.90;;;;;;6379975;27;20026;-67
2021/06/08 01:27:54;;;;;;;1.70;1.13;;;23.30;47.80;;;;;;6392616;27;20019;-68
2021/06/08 01:30:56;;;;;;;1.23;1.02;;;23.30;47.90;;;;;;6392106;27;20600;-68
2021/06/08 01:33:57;;;;;;;1.17;0.90;;;23.30;47.90;;;;;;6392092;27;20027;-67
2021/06/08 01:36:59;;;;;;;1.00;0.82;;;23.30;48.00;;;;;;6392057;27;20498;-68
2021/06/08 01:40:00;;;;;;;0.70;0.70;;;23.30;48.00;;;;;;6381920;27;20023;-67
2021/06/08 01:43:01;;;;;;;0.80;0.80;;;23.30;48.10;;;;;;6365929;27;20455;-68
2021/06/08 01:46:02;;;;;;;1.05;0.90;;;23.30;48.80;;;;;;6377623;27;20501;-67
2021/06/08 01:49:03;;;;;;;1.10;0.90;;;23.30;48.10;;;;;;6391397;27;20022;-67
2021/06/08 01:52:14;;;;;;;1.23;0.95;;;23.30;48.20;;;;;;6389717;27;20030;-67
2021/06/08 01:55:31;;;;;;;0.90;0.90;;;23.30;48.20;;;;;;6377024;27;20196;-67
2021/06/08 01:58:43;;;;;;;1.05;0.80;;;23.30;48.20;;;;;;6390601;27;20027;-66
2021/06/08 02:01:48;;;;;;;0.70;0.70;;;23.30;48.20;;;;;;6390245;27;20492;-67
2021/06/08 02:04:57;;;;;;;1.15;0.80;;;23.30;48.30;;;;;;6384440;27;20092;-67
2021/06/08 02:08:23;;;;;;;1.65;0.98;;;23.20;48.20;;;;;;6354084;27;20034;-67
2021/06/08 02:11:40;;;;;;;0.85;0.80;;;23.30;48.30;;;;;;6390238;27;20023;-67
2021/06/08 02:14:48;;;;;;;0.73;0.73;;;23.30;48.30;;;;;;6377989;27;20028;-67
2021/06/08 02:17:51;;;;;;;0.93;0.82;;;23.30;48.40;;;;;;6382170;27;20488;-67
2021/06/08 02:20:53;;;;;;;1.10;0.80;;;23.30;48.40;;;;;;6364053;27;20023;-67
2021/06/08 02:23:55;;;;;;;1.40;0.80;;;23.20;49.00;;;;;;6364124;27;20523;-67
2021/06/08 02:27:04;;;;;;;1.00;0.90;;;23.30;48.50;;;;;;6377509;27;20044;-67
2021/06/08 02:30:06;;;;;;;0.77;0.77;;;23.30;48.40;;;;;;6376489;27;20066;-67
2021/06/08 02:33:08;;;;;;;0.80;0.80;;;23.20;48.40;;;;;;6354705;27;20054;-67
2021/06/08 02:36:10;;;;;;;3.63;1.10;;;23.30;48.50;;;;;;6388983;27;20058;-67
2021/06/08 02:39:12;;;;;;;1.00;0.90;;;23.20;48.40;;;;;;6366865;27;20019;-66
2021/06/08 02:42:16;;;;;;;1.20;1.00;;;23.20;48.40;;;;;;6371336;27;20031;-67
2021/06/08 02:45:18;;;;;;;1.10;1.00;;;23.20;48.50;;;;;;6386072;27;20034;-68
2021/06/08 02:48:20;;;;;;;0.80;0.80;;;23.20;48.50;;;;;;6389704;27;20399;-67
2021/06/08 02:51:22;;;;;;;1.00;0.90;;;23.20;48.50;;;;;;6389589;27;20094;-67
2021/06/08 02:54:23;;;;;;;1.00;0.88;;;23.20;48.50;;;;;;6364032;27;20083;-67
2021/06/08 02:57:26;;;;;;;1.35;1.17;;;23.20;48.60;;;;;;6389121;27;20055;-67
2021/06/08 03:00:27;;;;;;;0.80;0.80;;;23.20;48.60;;;;;;6386136;27;20487;-67
2021/06/08 03:03:36;;;;;;;1.00;0.90;;;23.20;48.60;;;;;;6376802;27;20042;-66
2021/06/08 03:06:42;;;;;;;1.40;1.00;;;23.20;48.60;;;;;;6340631;27;20027;-67
2021/06/08 03:10:04;;;;;;;1.08;0.90;;;23.20;48.70;;;;;;6380848;27;20510;-66
2021/06/08 03:13:09;;;;;;;1.55;1.02;;;23.20;48.70;;;;;;6381007;27;20015;-67
2021/06/08 03:16:14;;;;;;;0.82;0.77;;;23.20;48.70;;;;;;6393273;27;20054;-66
2021/06/08 03:19:18;;;;;;;1.73;0.93;;;23.20;48.70;;;;;;6395692;27;20041;-67
2021/06/08 03:22:22;;;;;;;1.15;0.90;;;23.20;48.70;;;;;;6394325;27;20026;-67
2021/06/08 03:25:24;;;;;;;1.10;1.00;;;23.20;48.70;;;;;;6392401;27;20110;-67
2021/06/08 03:28:26;;;;;;;2.15;1.20;;;23.20;48.70;;;;;;6394322;27;20015;-67
2021/06/08 03:31:27;;;;;;;1.05;0.95;;;23.20;48.70;;;;;;6394661;27;20325;-66
2021/06/08 03:34:30;;;;;;;1.55;0.98;;;23.20;48.80;;;;;;6395505;27;20033;-66
2021/06/08 03:37:32;;;;;;;3.00;1.25;;;23.20;48.80;;;;;;6382147;27;20429;-67
2021/06/08 03:40:34;;;;;;;1.85;1.25;;;23.20;48.80;;;;;;6385007;27;20079;-68
2021/06/08 03:43:36;;;;;;;1.08;0.90;;;23.20;48.80;;;;;;6390988;27;20110;-68
2021/06/08 03:46:37;;;;;;;1.10;0.88;;;23.20;48.90;;;;;;6381060;27;20312;-66
2021/06/08 03:49:38;;;;;;;1.00;0.90;;;23.20;48.90;;;;;;6393936;27;20472;-67
2021/06/08 03:52:42;;;;;;;1.20;1.10;;;23.20;48.90;;;;;;6374576;27;20016;-66
2021/06/08 03:55:45;;;;;;;1.17;1.02;;;23.20;48.90;;;;;;6352184;27;20115;-67
2021/06/08 03:58:46;;;;;;;1.13;1.02;;;23.20;48.90;;;;;;6394900;27;20026;-66
2021/06/08 04:01:48;;;;;;;1.25;1.00;;;23.20;48.90;;;;;;6375160;27;20023;-67
2021/06/08 04:04:49;;;;;;;1.10;1.00;;;23.20;49.00;;;;;;6393902;27;20043;-66
2021/06/08 04:07:50;;;;;;;1.95;1.15;;;23.20;49.00;;;;;;6394199;27;20050;-66
2021/06/08 04:10:51;;;;;;;1.30;1.10;;;23.20;49.00;;;;;;6383900;27;20055;-67
2021/06/08 04:13:56;;;;;;;1.17;1.02;;;23.20;49.00;;;;;;6386497;27;20023;-67
2021/06/08 04:16:57;;;;;;;1.15;0.95;;;23.20;49.00;;;;;;6393991;27;20026;-67
2021/06/08 04:20:00;;;;;;;1.30;1.00;;;23.20;49.00;;;;;;6384397;27;20031;-68
2021/06/08 04:23:01;;;;;;;1.10;1.00;;;23.20;49.10;;;;;;6367706;27;20027;-66
2021/06/08 04:26:03;;;;;;;0.80;0.80;;;23.20;49.10;;;;;;6393682;27;20219;-67
2021/06/08 04:29:05;;;;;;;1.67;1.00;;;23.20;49.10;;;;;;6393747;27;20049;-69
2021/06/08 04:32:06;;;;;;;2.28;1.00;;;23.20;49.10;;;;;;6350549;27;20023;-67
2021/06/08 04:35:07;;;;;;;1.15;0.90;;;23.20;49.20;;;;;;6366728;27;20038;-68
2021/06/08 04:38:08;;;;;;;1.13;0.98;;;23.20;49.20;;;;;;6386971;27;20543;-66
2021/06/08 04:41:09;;;;;;;1.00;0.90;;;23.20;49.20;;;;;;6389803;27;20102;-66
2021/06/08 04:44:15;;;;;;;1.15;1.00;;;23.20;49.20;;;;;;6392886;27;20065;-67
2021/06/08 04:47:17;;;;;;;1.02;0.90;;;23.20;49.20;;;;;;6385520;27;20161;-67
2021/06/08 04:50:17;;;;;;;1.20;1.00;;;23.20;49.20;;;;;;6383156;27;20033;-67
2021/06/08 04:53:18;;;;;;;1.10;1.00;;;23.20;49.20;;;;;;6377294;27;20019;-67
2021/06/08 04:56:19;;;;;;;1.13;1.02;;;23.20;49.20;;;;;;6367991;27;20043;-67
2021/06/08 04:59:29;;;;;;;1.67;1.30;;;23.20;49.20;;;;;;6370073;27;20027;-67
2021/06/08 05:02:35;;;;;;;0.82;0.80;;;23.20;49.30;;;;;;6384263;27;20621;-68
2021/06/08 05:05:40;;;;;;;1.10;1.00;;;23.20;49.30;;;;;;6390738;27;20015;-67
2021/06/08 05:08:54;;;;;;;1.33;1.00;;;23.20;49.30;;;;;;6368909;27;20011;-67
2021/06/08 05:11:58;;;;;;;1.00;0.90;;;23.20;49.30;;;;;;6350365;27;20051;-68
2021/06/08 05:15:01;;;;;;;1.00;0.90;;;23.20;49.30;;;;;;6368952;27;20023;-65
2021/06/08 05:18:02;;;;;;;1.60;1.05;;;23.20;49.30;;;;;;6369044;27;20505;-68
2021/06/08 05:21:05;;;;;;;1.00;0.85;;;23.20;49.30;;;;;;6382692;27;20506;-68
2021/06/08 05:24:07;;;;;;;1.33;0.85;;;23.20;49.40;;;;;;6374573;27;20027;-67
2021/06/08 05:27:09;;;;;;;1.08;0.95;;;23.20;49.40;;;;;;6375698;27;20151;-67
2021/06/08 05:30:11;;;;;;;1.15;1.05;;;23.20;49.40;;;;;;6380895;27;20491;-68
2021/06/08 05:33:11;;;;;;;1.17;1.00;;;23.20;49.40;;;;;;6392515;27;20310;-67
2021/06/08 05:36:12;;;;;;;1.10;1.00;;;23.20;49.40;;;;;;6387514;27;20023;-65
2021/06/08 05:39:12;;;;;;;1.30;0.90;;;23.20;49.40;;;;;;6371512;27;20038;-66
2021/06/08 05:42:20;;;;;;;1.25;1.00;;;23.20;49.50;;;;;;6392249;27;20453;-65
2021/06/08 05:45:21;;;;;;;1.02;0.90;;;23.20;49.50;;;;;;6389205;27;20066;-65
2021/06/08 05:48:23;;;;;;;1.38;1.00;;;23.20;49.50;;;;;;6388258;27;20628;-65
2021/06/08 05:51:24;;;;;;;1.27;0.90;;;23.20;49.50;;;;;;6372873;27;20037;-64
2021/06/08 05:54:30;;;;;;;1.02;0.80;;;23.20;49.60;;;;;;6370884;27;20499;-64
2021/06/08 05:57:32;;;;;;;1.13;1.00;;;23.20;49.50;;;;;;6386684;27;20046;-64
2021/06/08 06:00:34;;;;;;;1.00;0.90;;;23.20;49.60;;;;;;6377855;27;20510;-65
2021/06/08 06:03:34;;;;;;;0.80;0.80;;;23.20;49.60;;;;;;6370770;27;20083;-65
2021/06/08 06:06:35;;;;;;;1.00;0.90;;;23.20;49.60;;;;;;6360035;27;20027;-65
2021/06/08 06:09:36;;;;;;;0.98;0.80;;;23.20;49.60;;;;;;6368639;27;20031;-65
2021/06/08 06:12:38;;;;;;;1.13;1.02;;;23.20;49.60;;;;;;6369208;27;20019;-66
2021/06/08 06:15:40;;;;;;;0.88;0.77;;;23.20;49.60;;;;;;6377761;27;20030;-65
2021/06/08 06:18:41;;;;;;;0.80;0.70;;;23.20;49.60;;;;;;6372818;27;20024;-65
2021/06/08 06:21:42;;;;;;;1.05;0.95;;;23.20;49.70;;;;;;6365812;27;20404;-65
2021/06/08 06:24:43;;;;;;;1.42;1.13;;;23.20;49.70;;;;;;6367904;27;20422;-65
2021/06/08 06:27:43;;;;;;;1.00;0.85;;;23.20;49.70;;;;;;6375706;27;20060;-65
2021/06/08 06:30:45;;;;;;;0.88;0.85;;;23.20;49.70;;;;;;6372169;27;20106;-65
2021/06/08 06:33:53;;;;;;;0.80;0.80;;;23.20;49.70;;;;;;6391708;27;20026;-65
2021/06/08 06:36:57;;;;;;;1.30;0.90;;;23.20;49.70;;;;;;6379054;27;20515;-65
2021/06/08 06:39:59;;;;;;;1.30;1.10;;;23.20;49.70;;;;;;6379838;27;20394;-65
2021/06/08 06:43:05;;;;;;;1.23;0.90;;;23.20;49.70;;;;;;6362943;27;20027;-65
2021/06/08 06:46:05;;;;;;;0.73;0.73;;;23.20;49.70;;;;;;6360053;27;20043;-65
2021/06/08 06:49:07;;;;;;;1.08;0.90;;;23.20;49.80;;;;;;6366687;27;20443;-65
2021/06/08 06:52:08;;;;;;;0.70;0.70;;;23.20;49.70;;;;;;6364503;27;20055;-65
2021/06/08 06:55:10;;;;;;;1.13;0.98;;;23.20;49.70;;;;;;6383041;27;20027;-65
2021/06/08 06:58:11;;;;;;;1.35;1.05;;;23.20;49.70;;;;;;6381329;27;20023;-65
2021/06/08 07:01:13;;;;;;;0.70;0.70;;;23.20;49.80;;;;;;6384376;27;20183;-68
2021/06/08 07:04:16;;;;;;;1.00;0.90;;;23.20;49.80;;;;;;6361549;27;20521;-68
2021/06/08 07:07:21;;;;;;;1.27;1.15;;;23.20;49.80;;;;;;6390619;27;20030;-67
2021/06/08 07:10:26;;;;;;;;;;;23.20;49.80;;;;;;6368439;27;20434;-65
2021/06/08 07:13:27;;;;;;;0.93;0.80;;;23.20;49.80;;;;;;6370301;27;20440;-64
2021/06/08 07:16:27;;;;;;;1.20;1.10;;;23.20;49.80;;;;;;6367248;27;20047;-65
2021/06/08 07:19:28;;;;;;;1.20;0.88;;;23.20;49.80;;;;;;6374122;27;20034;-65
2021/06/08 07:22:31;;;;;;;1.08;1.00;;;23.20;49.80;;;;;;6368890;27;20015;-66
2021/06/08 07:25:37;;;;;;;1.00;0.90;;;23.20;49.90;;;;;;6367353;27;20031;-68
2021/06/08 07:28:41;;;;;;;1.05;0.77;;;23.20;49.90;;;;;;6379440;27;20031;-67
2021/06/08 07:31:47;;;;;;;1.00;0.90;;;23.20;49.90;;;;;;6376290;27;20035;-66
2021/06/08 07:34:56;;;;;;;0.90;0.90;;;23.20;49.90;;;;;;6360913;28;20027;-67
2021/06/08 07:38:07;;;;;;;1.00;0.90;;;23.20;49.90;;;;;;6381254;27;20011;-65
2021/06/08 07:41:22;;;;;;;0.80;0.80;;;23.20;50.00;;;;;;6370183;27;20043;-68
2021/06/08 07:44:32;;;;;;;1.30;0.93;;;23.20;50.00;;;;;;6376683;27;20395;-66
2021/06/08 07:47:43;;;;;;;1.00;0.90;;;23.20;49.90;;;;;;6376948;27;20151;-65
2021/06/08 07:50:50;;;;;;;1.00;0.90;;;23.20;49.90;;;;;;6353811;27;20028;-67
2021/06/08 07:53:53;;;;;;;0.77;0.77;;;23.20;50.00;;;;;;6351049;28;20315;-66
2021/06/08 07:56:58;;;;;;;1.23;0.82;;;23.20;50.00;;;;;;6355469;27;20512;-66
2021/06/08 08:00:13;;;;;;;0.80;0.80;;;23.20;50.00;;;;;;6345679;28;20149;-67
2021/06/08 08:03:51;;;;;;;1.10;0.88;;;23.20;50.00;;;;;;6360939;27;20092;-65
2021/06/08 08:07:09;;;;;;;1.15;0.90;;;23.20;50.00;;;;;;6318806;28;20032;-65
2021/06/08 08:10:27;;;;;;;1.10;0.90;;;23.20;50.00;;;;;;6345991;28;20469;-68
2021/06/08 08:13:29;;;;;;;1.30;0.90;;;23.20;50.00;;;;;;6324698;22;20484;-72
2021/06/08 08:16:30;;;;;;;1.25;1.15;;;23.20;50.10;;;;;;6301839;28;20090;-73
2021/06/08 08:19:31;;;;;;;3.15;1.13;;;23.20;50.10;;;;;;6291271;28;20063;-73
2021/06/08 08:22:32;;;;;;;1.42;1.13;;;23.20;50.00;;;;;;6290201;28;20088;-73
2021/06/08 08:25:32;;;;;;;1.50;1.30;;;23.20;50.00;;;;;;6291548;28;20031;-72
2021/06/08 08:28:34;;;;;;;1.33;1.23;;;23.20;50.00;;;;;;6290492;28;20476;-72
2021/06/08 08:31:37;;;;;;;1.70;1.60;;;23.20;50.00;;;;;;6293905;28;20039;-73
2021/06/08 08:34:39;;;;;;;2.60;1.40;;;23.20;50.10;;;;;;6286799;28;20024;-73
2021/06/08 08:37:39;;;;;;;1.70;1.48;;;23.20;50.00;;;;;;6286854;28;20108;-72
2021/06/08 08:40:41;;;;;;;1.45;1.33;;;23.20;50.10;;;;;;6280884;28;20431;-73
2021/06/08 08:43:46;;;;;;;1.77;1.35;;;23.20;50.10;;;;;;6275288;28;20100;-72
2021/06/08 08:46:47;;;;;;;2.25;1.52;;;23.20;50.00;;;;;;6274940;28;20084;-72
2021/06/08 08:49:48;;;;;;;3.30;1.50;;;23.20;50.10;;;;;;6286829;28;20021;-73
2021/06/08 08:52:58;;;;;;;2.05;1.15;;;23.20;50.10;;;;;;6288364;28;20493;-72
2021/06/08 08:55:59;;;;;;;2.33;1.48;;;23.20;50.10;;;;;;6290043;28;20024;-73
2021/06/08 08:59:08;;;;;;;1.50;1.40;;;23.20;50.10;;;;;;6289673;28;20064;-73
2021/06/08 09:02:10;;;;;;;2.00;1.45;;;23.20;50.10;;;;;;6274364;28;20044;-73
2021/06/08 09:05:11;;;;;;;2.03;1.40;;;23.20;50.10;;;;;;6272628;28;20298;-73
2021/06/08 09:08:12;;;;;;;1.75;1.20;;;23.20;50.10;;;;;;6290797;28;20126;-73
2021/06/08 09:11:13;;;;;;;4.22;1.50;;;23.20;50.20;;;;;;6269902;28;20277;-72
2021/06/08 09:14:15;;;;;;;1.58;1.40;;;23.20;50.10;;;;;;6272212;28;20055;-72
2021/06/08 09:17:19;;;;;;;1.55;1.35;;;23.20;50.20;;;;;;6286713;28;20426;-73
2021/06/08 09:20:19;;;;;;;1.42;1.20;;;23.20;50.10;;;;;;6288312;28;20055;-73
2021/06/08 09:23:23;;;;;;;1.80;1.40;;;23.20;50.20;;;;;;6290356;28;20383;-73
2021/06/08 09:26:23;;;;;;;1.67;1.20;;;23.20;50.20;;;;;;6269530;28;20449;-73
2021/06/08 09:29:29;;;;;;;2.65;1.48;;;23.20;50.20;;;;;;6285653;28;20033;-73
2021/06/08 09:32:30;;;;;;;1.30;1.20;;;23.20;50.20;;;;;;6278749;28;20023;-72
2021/06/08 09:35:30;;;;;;;1.33;1.20;;;23.20;50.20;;;;;;6274632;28;20376;-72
2021/06/08 09:38:39;;;;;;;1.10;1.00;;;23.20;50.30;;;;;;6285041;28;20020;-72
2021/06/08 09:41:51;;;;;;;1.10;1.00;;;23.20;50.30;;;;;;6278910;28;20426;-72
2021/06/08 09:44:52;;;;;;;2.40;1.05;;;23.20;50.20;;;;;;6293434;28;20353;-73
2021/06/08 09:48:01;;;;;;;1.20;1.10;;;23.30;50.30;;;;;;6271780;28;20066;-73
2021/06/08 09:51:02;;;;;;;1.35;1.10;;;23.30;51.00;;;;;;6276956;28;20246;-73
2021/06/08 09:54:02;;;;;;;2.05;1.08;;;23.30;50.30;;;;;;6286247;28;20533;-73
2021/06/08 09:57:28;;;;;;;1.30;1.15;;;23.30;50.30;;;;;;6271945;28;20021;-73
2021/06/08 10:00:28;;;;;;;;;;;23.30;50.40;;;;;;6274056;28;20111;-73
2021/06/08 10:03:54;;;;;;;1.38;1.20;;;23.30;50.30;;;;;;6270484;28;19934;-72
2021/06/08 10:06:54;;;;;;;1.38;1.08;;;23.30;50.40;;;;;;6269453;28;20266;-72
2021/06/08 10:10:12;;;;;;;2.92;1.20;;;23.30;50.30;;;;;;6284649;28;20102;-73
2021/06/08 10:13:19;;;;;;;1.10;1.00;;;23.30;51.20;;;;;;6283510;28;20477;-73
2021/06/08 10:16:29;;;;;;;0.80;0.80;;;23.30;50.50;;;;;;6276483;28;20037;-72
2021/06/08 10:19:30;;;;;;;1.75;1.20;;;23.30;50.50;;;;;;6273244;28;20024;-73
2021/06/08 10:22:31;;;;;;;1.38;1.10;;;23.30;50.50;;;;;;6268677;28;20047;-73
2021/06/08 10:25:32;;;;;;;1.27;1.17;;;23.20;50.40;;;;;;6267628;28;20024;-73
2021/06/08 10:28:33;;;;;;;4.30;1.20;;;23.30;50.50;;;;;;6290872;28;20237;-71
2021/06/08 10:31:39;;;;;;;1.58;1.25;;;23.20;51.70;;;;;;6285214;28;20314;-71
2021/06/08 10:34:40;;;;;;;1.10;0.90;;;23.30;50.70;;;;;;6277654;28;20035;-71
2021/06/08 10:37:41;;;;;;;1.10;1.00;;;23.30;50.60;;;;;;6289823;28;20028;-71
2021/06/08 10:40:44;;;;;;;1.10;1.00;;;23.30;50.50;;;;;;6282872;28;20025;-71
2021/06/08 10:43:45;;;;;;;1.20;0.88;;;23.30;50.60;;;;;;6267590;28;20560;-71
2021/06/08 10:46:50;;;;;;;1.00;0.90;;;23.20;50.50;;;;;;6276125;28;20421;-71
2021/06/08 10:49:52;;;;;;;1.70;1.30;;;23.20;50.50;;;;;;6273737;28;20112;-70
2021/06/08 10:52:56;;;;;;;1.90;1.15;;;23.20;50.50;;;;;;6282035;28;20029;-71
2021/06/08 10:55:58;;;;;;;1.40;1.00;;;23.20;50.50;;;;;;6284029;28;20029;-71
2021/06/08 10:58:59;;;;;;;1.63;1.30;;;23.20;50.60;;;;;;6277758;28;20034;-71
2021/06/08 11:02:00;;;;;;;1.20;1.10;;;23.20;50.50;;;;;;6274537;28;20039;-70
2021/06/08 11:05:01;;;;;;;1.20;1.10;;;23.20;50.50;;;;;;6282766;28;20036;-71
2021/06/08 11:08:01;;;;;;;1.80;1.13;;;23.20;50.50;;;;;;6283431;28;20036;-70
2021/06/08 11:11:02;;;;;;;3.00;1.20;;;23.30;50.60;;;;;;6282959;28;20017;-71
2021/06/08 11:14:03;;;;;;;1.20;1.05;;;23.20;50.60;;;;;;6269003;28;20083;-71
2021/06/08 11:17:05;;;;;;;1.23;1.13;;;23.30;50.60;;;;;;6264433;28;20037;-71
2021/06/08 11:20:16;;;;;;;1.10;1.00;;;23.30;50.60;;;;;;6284087;28;20025;-70
2021/06/08 11:23:33;;;;;;;1.10;1.00;;;23.30;50.60;;;;;;6289259;28;20505;-71
2021/06/08 11:26:51;;;;;;;3.20;1.08;;;23.30;50.70;;;;;;6287651;28;20107;-69
2021/06/08 11:29:56;;;;;;;1.33;1.08;;;23.20;50.60;;;;;;6266885;28;20017;-70
2021/06/08 11:32:57;;;;;;;4.93;1.17;;;23.30;50.70;;;;;;6280312;28;20021;-71
2021/06/08 11:35:59;;;;;;;3.33;1.00;;;23.20;50.70;;;;;;6274938;28;20040;-71
2021/06/08 11:39:18;;;;;;;1.17;1.08;;;23.30;50.70;;;;;;6278162;28;20388;-70
2021/06/08 11:42:33;;;;;;;1.00;0.90;;;23.20;50.70;;;;;;6281671;28;20427;-70
2021/06/08 11:45:44;;;;;;;1.10;0.82;;;23.20;50.60;;;;;;6273113;28;20029;-70
2021/06/08 11:48:47;;;;;;;1.60;1.15;;;23.20;50.60;;;;;;6272911;28;20116;-71
2021/06/08 11:51:49;;;;;;;1.02;0.80;;;23.20;50.60;;;;;;6290394;28;20115;-71
2021/06/08 11:54:50;;;;;;;1.10;1.00;;;23.30;50.70;;;;;;6293086;28;20031;-70
2021/06/08 11:57:50;;;;;;;1.25;1.05;;;23.20;50.60;;;;;;6290082;28;20032;-70
2021/06/08 12:00:52;;;;;;;1.90;1.10;;;23.20;50.70;;;;;;6293967;28;20024;-70
2021/06/08 12:03:59;;;;;;;1.13;1.02;;;23.20;50.70;;;;;;6282647;28;20127;-70
2021/06/08 12:07:07;;;;;;;1.08;0.95;;;23.20;50.60;;;;;;6281435;28;20025;-70
2021/06/08 12:10:09;;;;;;;1.92;1.17;;;23.20;50.70;;;;;;6274329;28;20036;-70
2021/06/08 12:13:11;;;;;;;1.13;1.02;;;23.20;50.70;;;;;;6284647;28;20128;-71
2021/06/08 12:16:13;;;;;;;1.45;1.00;;;23.20;50.70;;;;;;6272216;28;20036;-71
2021/06/08 12:19:14;;;;;;;1.27;1.02;;;23.20;50.70;;;;;;6278818;28;20073;-70
2021/06/08 12:22:28;;;;;;;2.53;1.13;;;23.20;50.70;;;;;;6288514;28;20458;-70
2021/06/08 12:25:30;;;;;;;1.35;1.02;;;23.20;50.70;;;;;;6288000;28;20086;-70
2021/06/08 12:28:30;;;;;;;1.10;1.00;;;23.20;50.70;;;;;;6261981;28;20087;-70
2021/06/08 12:31:31;;;;;;;1.35;1.10;;;23.20;50.70;;;;;;6270836;28;20107;-71
2021/06/08 12:34:37;;;;;;;1.48;1.20;;;23.20;50.70;;;;;;6272640;28;20384;-71
2021/06/08 12:37:38;;;;;;;1.40;0.90;;;23.20;50.70;;;;;;6279607;28;20032;-70
2021/06/08 12:40:39;;;;;;;1.00;0.90;;;23.20;50.70;;;;;;6288908;28;20271;-70
2021/06/08 12:43:52;;;;;;;1.10;1.00;;;23.20;50.70;;;;;;6289075;28;20036;-71
2021/06/08 12:46:52;;;;;;;1.48;1.00;;;23.20;50.70;;;;;;6279201;28;20222;-70
2021/06/08 12:49:54;;;;;;;1.15;1.05;;;23.20;50.70;;;;;;6289528;28;20059;-70
2021/06/08 12:52:57;;;;;;;1.27;1.15;;;23.20;50.70;;;;;;6288935;28;20032;-71
2021/06/08 12:55:57;;;;;;;1.05;0.90;;;23.20;50.70;;;;;;6281947;28;20091;-71
2021/06/08 12:58:58;;;;;;;0.93;0.85;;;23.20;50.80;;;;;;6273947;28;20337;-71
2021/06/08 13:02:01;;;;;;;1.52;1.15;;;23.20;50.70;;;;;;6293043;28;20490;-70
2021/06/08 13:05:08;;;;;;;1.13;0.90;;;23.20;50.80;;;;;;6269923;28;20095;-71
2021/06/08 13:08:09;;;;;;;1.10;1.00;;;23.20;50.80;;;;;;6279867;28;20365;-70
2021/06/08 13:11:27;;;;;;;0.95;0.82;;;23.20;50.80;;;;;;6274507;28;20021;-71
2021/06/08 13:14:28;;;;;;;1.60;1.20;;;23.20;50.80;;;;;;6296538;28;20125;-70
2021/06/08 13:17:28;;;;;;;1.05;0.95;;;23.20;50.80;;;;;;6269612;28;20037;-70
2021/06/08 13:20:32;;;;;;;1.40;1.30;;;23.20;50.80;;;;;;6273153;28;20108;-70
2021/06/08 13:23:33;;;;;;;1.10;1.00;;;23.20;50.80;;;;;;6270469;28;20029;-71
2021/06/08 13:26:34;;;;;;;1.10;1.00;;;23.20;50.80;;;;;;6276120;28;20083;-71
2021/06/08 13:29:35;;;;;;;1.00;0.90;;;23.20;50.90;;;;;;6268259;28;20127;-70
2021/06/08 13:32:35;;;;;;;1.25;1.15;;;23.20;50.90;;;;;;6291072;28;20050;-71
2021/06/08 13:35:37;;;;;;;1.10;1.00;;;23.20;50.80;;;;;;6275068;28;20036;-70
2021/06/08 13:38:38;;;;;;;1.90;1.20;;;23.20;50.80;;;;;;6283349;28;20104;-71
2021/06/08 13:41:39;;;;;;;1.60;1.05;;;23.20;50.80;;;;;;6271535;28;20499;-70
2021/06/08 13:44:55;;;;;;;1.25;1.15;;;23.20;50.80;;;;;;6271813;28;20032;-72
2021/06/08 13:48:14;;;;;;;1.27;1.10;;;23.20;50.80;;;;;;6266943;28;20427;-71
2021/06/08 13:51:20;;;;;;;0.93;0.88;;;23.20;50.80;;;;;;6287346;28;20037;-71
2021/06/08 13:54:21;;;;;;;1.20;1.10;;;23.20;50.80;;;;;;6281936;28;20036;-70
2021/06/08 13:57:32;;;;;;;2.15;1.10;;;23.20;50.90;;;;;;6275615;28;20029;-71
2021/06/08 14:00:32;;;;;;;1.00;0.90;;;23.20;50.90;;;;;;6275734;28;20032;-70
2021/06/08 14:03:34;;;;;;;0.95;0.85;;;23.20;50.90;;;;;;6288851;28;20043;-70
2021/06/08 14:06:38;;;;;;;1.02;0.93;;;23.20;50.90;;;;;;6288037;28;20029;-70
2021/06/08 14:09:44;;;;;;;1.20;1.10;;;23.20;50.90;;;;;;6289686;28;20016;-70
2021/06/08 14:12:58;;;;;;;1.10;1.00;;;23.20;50.90;;;;;;6281775;28;20040;-71
2021/06/08 14:15:59;;;;;;;1.20;1.10;;;23.20;50.90;;;;;;6277559;28;20032;-71
2021/06/08 14:19:00;;;;;;;1.20;1.10;;;23.20;50.90;;;;;;6285716;28;20091;-71
2021/06/08 14:22:01;;;;;;;1.08;0.98;;;23.20;50.90;;;;;;6267411;28;20028;-71
2021/06/08 14:25:01;;;;;;;2.08;1.15;;;23.20;51.00;;;;;;6265564;28;20028;-71
2021/06/08 14:28:06;;;;;;;1.10;1.00;;;23.20;50.90;;;;;;6272572;28;20033;-71
2021/06/08 14:31:07;;;;;;;1.10;0.90;;;23.20;50.90;;;;;;6283157;28;20511;-70
2021/06/08 14:34:07;;;;;;;1.15;1.00;;;23.20;50.90;;;;;;6269680;28;20033;-71
2021/06/08 14:37:09;;;;;;;1.88;1.13;;;23.20;50.90;;;;;;6267569;28;20495;-70
2021/06/08 14:40:10;;;;;;;1.00;0.90;;;23.20;50.90;;;;;;6283952;28;20119;-71
2021/06/08 14:43:10;;;;;;;1.42;1.10;;;23.20;51.00;;;;;;6280374;28;20037;-71
2021/06/08 14:46:11;;;;;;;1.42;0.93;;;23.20;51.00;;;;;;6275657;28;20024;-70
2021/06/08 14:49:12;;;;;;;1.00;0.90;;;23.20;51.00;;;;;;6266986;28;20040;-70
2021/06/08 14:52:13;;;;;;;1.25;1.15;;;23.20;51.00;;;;;;6278489;28;20028;-70
2021/06/08 14:55:13;;;;;;;1.27;1.17;;;23.20;51.00;;;;;;6273883;28;20037;-71
2021/06/08 14:58:14;;;;;;;1.10;1.00;;;23.20;51.00;;;;;;6281310;28;20028;-71
2021/06/08 15:01:17;;;;;;;0.95;0.93;;;23.20;51.00;;;;;;6282210;28;20505;-71
2021/06/08 15:04:18;;;;;;;1.42;0.90;;;23.20;51.00;;;;;;6289322;28;20065;-71
2021/06/08 15:07:19;;;;;;;1.55;1.00;;;23.20;51.00;;;;;;6290985;28;20059;-70
2021/06/08 15:10:19;;;;;;;1.58;0.90;;;23.20;51.00;;;;;;6273036;28;20387;-71
2021/06/08 15:13:20;;;;;;;1.63;1.10;;;23.20;51.00;;;;;;6284425;28;20048;-71
2021/06/08 15:16:21;;;;;;;0.90;0.90;;;23.20;51.00;;;;;;6294461;28;20496;-71
2021/06/08 15:19:21;;;;;;;1.30;1.08;;;23.20;51.00;;;;;;6297945;28;20024;-71
2021/06/08 15:22:22;;;;;;;1.00;0.90;;;23.20;51.00;;;;;;6282675;28;20083;-71
2021/06/08 15:25:23;;;;;;;1.20;1.10;;;23.20;51.00;;;;;;6279843;28;20033;-71
2021/06/08 15:28:25;;;;;;;1.10;1.00;;;23.20;51.00;;;;;;6289709;28;20023;-71
2021/06/08 15:31:26;;;;;;;1.23;1.05;;;23.20;51.00;;;;;;6298044;28;20036;-71
2021/06/08 15:34:29;;;;;;;1.13;0.98;;;23.20;51.00;;;;;;6298333;28;20048;-71
2021/06/08 15:37:30;;;;;;;1.10;1.00;;;23.20;51.10;;;;;;6291212;28;20047;-71
2021/06/08 15:40:31;;;;;;;1.10;1.00;;;23.20;51.00;;;;;;6289398;28;20065;-71
2021/06/08 15:43:32;;;;;;;1.50;1.10;;;23.20;51.10;;;;;;6291525;28;20029;-71
2021/06/08 15:46:36;;;;;;;1.20;1.00;;;23.20;51.00;;;;;;6280387;28;20452;-70
2021/06/08 15:49:37;;;;;;;1.25;1.08;;;23.20;51.00;;;;;;6282948;28;20467;-71
2021/06/08 15:52:38;;;;;;;1.20;1.10;;;23.20;51.00;;;;;;6287614;28;20309;-70
2021/06/08 15:55:38;;;;;;;1.10;1.00;;;23.20;51.10;;;;;;6281635;28;20547;-70